createdAt,value
2022-08-28T00:00:36.390Z,80.00
2022-08-28T00:03:03.974Z,81.16
2022-08-28T00:05:33.834Z,80.61
2022-08-28T00:08:00.614Z,79.83
2022-08-28T00:10:28.459Z,79.64
2022-08-28T00:12:56.505Z,80.43
2022-08-28T00:15:29.162Z,79.20
2022-08-28T00:17:55.985Z,79.22
2022-08-28T00:20:23.283Z,79.96
2022-08-28T00:22:50.306Z,80.37
2022-08-28T00:25:17.900Z,79.68
2022-08-28T00:27:53.217Z,79.52
2022-08-28T00:30:26.327Z,79.25
2022-08-28T00:32:55.389Z,79.71
2022-08-28T00:35:23.705Z,78.59
2022-08-28T00:37:52.459Z,78.48
2022-08-28T00:40:28.490Z,78.47
2022-08-28T00:42:56.021Z,79.86
2022-08-28T00:45:23.926Z,80.30
2022-08-28T00:47:51.212Z,78.74
2022-08-28T00:50:22.173Z,77.46
2022-08-28T00:52:53.018Z,76.82
2022-08-28T00:55:25.466Z,77.56
2022-08-28T00:57:58.266Z,78.01
2022-08-28T01:00:30.686Z,78.94
2022-08-28T01:02:58.272Z,80.34
2022-08-28T01:05:26.035Z,79.13
2022-08-28T01:07:52.837Z,80.89
2022-08-28T01:10:23.043Z,83.97
2022-08-28T01:12:50.137Z,85.11
2022-08-28T01:15:20.701Z,84.39
2022-08-28T01:17:49.611Z,83.50
2022-08-28T01:20:21.139Z,83.38
2022-08-28T01:23:06.518Z,84.10
2022-08-28T01:25:34.607Z,83.04
2022-08-28T01:28:01.982Z,82.48
2022-08-28T01:30:31.841Z,83.17
2022-08-28T01:32:58.593Z,83.08
2022-08-28T01:35:33.126Z,83.56
2022-08-28T01:38:00.302Z,84.20
2022-08-28T01:40:30.562Z,84.48
2022-08-28T01:43:06.952Z,85.03
2022-08-28T01:45:33.780Z,86.60
2022-08-28T01:48:00.266Z,86.10
2022-08-28T01:50:27.010Z,85.92
2022-08-28T01:52:53.499Z,86.66
2022-08-28T01:55:21.601Z,85.53
2022-08-28T01:57:50.752Z,87.68
2022-08-28T02:00:18.258Z,87.75
2022-08-28T02:02:44.749Z,88.54
2022-08-28T02:05:11.803Z,86.95
2022-08-28T02:07:38.508Z,85.50
2022-08-28T02:10:07.426Z,87.03
2022-08-28T02:12:34.013Z,87.52
2022-08-28T02:15:00.776Z,85.81
2022-08-28T02:17:27.312Z,85.99
2022-08-28T02:19:53.795Z,85.57
2022-08-28T02:22:20.269Z,86.34
2022-08-28T02:24:46.778Z,87.89
2022-08-28T02:27:13.464Z,88.30
2022-08-28T02:29:40.044Z,86.83
2022-08-28T02:32:06.612Z,86.46
2022-08-28T02:34:34.576Z,85.51
2022-08-28T02:37:01.045Z,85.95
2022-08-28T02:39:27.549Z,87.62
2022-08-28T02:41:54.103Z,86.98
2022-08-28T02:44:20.586Z,87.21
2022-08-28T02:46:47.078Z,85.88
2022-08-28T02:49:13.590Z,85.96
2022-08-28T02:51:40.074Z,84.72
2022-08-28T02:54:06.563Z,84.37
2022-08-28T02:56:33.348Z,83.82
2022-08-28T02:58:59.828Z,84.07
2022-08-28T03:01:26.436Z,83.69
2022-08-28T03:03:53.118Z,83.17
2022-08-28T03:06:19.899Z,83.21
2022-08-28T03:08:46.444Z,84.19
2022-08-28T03:11:13.024Z,84.49
2022-08-28T03:13:39.621Z,84.90
2022-08-28T03:16:06.614Z,84.23
2022-08-28T03:18:33.305Z,84.77
2022-08-28T03:21:00.201Z,84.49
2022-08-28T03:23:26.734Z,81.66
2022-08-28T03:26:00.517Z,81.76
2022-08-28T03:28:29.615Z,83.71
2022-08-28T03:30:57.926Z,84.22
2022-08-28T03:33:25.169Z,85.51
2022-08-28T03:35:52.066Z,84.83
2022-08-28T03:38:20.730Z,83.35
2022-08-28T03:40:47.553Z,83.99
2022-08-28T03:43:17.930Z,83.52
2022-08-28T03:45:53.769Z,83.03
2022-08-28T03:48:20.630Z,81.71
2022-08-28T03:50:47.768Z,82.01
2022-08-28T03:53:15.893Z,82.79
2022-08-28T03:55:43.287Z,83.25
2022-08-28T03:58:09.772Z,83.30
2022-08-28T04:00:46.406Z,83.39
2022-08-28T04:03:13.479Z,84.08
2022-08-28T04:05:41.094Z,82.52
2022-08-28T04:08:08.172Z,82.02
2022-08-28T04:10:36.647Z,82.78
2022-08-28T04:13:04.910Z,83.62
2022-08-28T04:15:31.452Z,82.96
2022-08-28T04:17:58.216Z,83.40
2022-08-28T04:20:24.767Z,83.34
2022-08-28T04:22:53.004Z,84.23
2022-08-28T04:25:22.047Z,84.27
2022-08-28T04:27:49.206Z,83.96
2022-08-28T04:30:15.937Z,83.97
2022-08-28T04:32:42.446Z,84.82
2022-08-28T04:35:10.755Z,84.93
2022-08-28T04:37:37.588Z,84.68
2022-08-28T04:40:06.172Z,84.57
2022-08-28T04:42:32.654Z,84.41
2022-08-28T04:44:59.709Z,84.69
2022-08-28T04:47:27.383Z,84.83
2022-08-28T04:49:54.609Z,84.46
2022-08-28T04:52:22.844Z,84.40
2022-08-28T04:54:50.006Z,83.73
2022-08-28T04:57:16.539Z,83.49
2022-08-28T04:59:45.070Z,83.55
2022-08-28T05:02:11.845Z,83.27
2022-08-28T05:04:38.385Z,83.59
2022-08-28T05:07:06.205Z,83.26
2022-08-28T05:09:34.825Z,82.92
2022-08-28T05:12:03.305Z,82.12
2022-08-28T05:14:30.524Z,80.15
2022-08-28T05:16:57.725Z,80.41
2022-08-28T05:19:26.043Z,78.62
2022-08-28T05:21:53.767Z,79.13
2022-08-28T05:24:21.283Z,78.27
2022-08-28T05:26:48.078Z,78.38
2022-08-28T05:29:16.693Z,76.68
2022-08-28T05:31:43.423Z,75.75
2022-08-28T05:34:10.575Z,73.94
2022-08-28T05:36:38.605Z,72.34
2022-08-28T05:39:08.365Z,72.24
2022-08-28T05:41:35.023Z,74.30
2022-08-28T05:44:05.436Z,73.63
2022-08-28T05:46:32.559Z,71.94
2022-08-28T05:49:00.368Z,71.60
2022-08-28T05:51:27.705Z,68.95
2022-08-28T05:53:57.937Z,67.33
2022-08-28T05:56:30.140Z,66.55
2022-08-28T05:58:57.639Z,66.82
2022-08-28T06:01:29.522Z,67.56
2022-08-28T06:04:04.162Z,65.80
2022-08-28T06:06:34.346Z,66.32
2022-08-28T06:09:04.430Z,67.08
2022-08-28T06:11:31.321Z,65.62
2022-08-28T06:14:02.747Z,65.10
2022-08-28T06:16:31.421Z,64.69
2022-08-28T06:19:01.692Z,64.12
2022-08-28T06:21:28.955Z,66.99
2022-08-28T06:23:56.131Z,65.97
2022-08-28T06:26:23.094Z,63.50
2022-08-28T06:28:49.578Z,62.90
2022-08-28T06:31:25.078Z,64.68
2022-08-28T06:33:57.471Z,63.53
2022-08-28T06:36:28.908Z,63.43
2022-08-28T06:38:58.436Z,63.13
2022-08-28T06:41:25.810Z,62.93
2022-08-28T06:43:52.348Z,61.22
2022-08-28T06:46:18.866Z,60.74
2022-08-28T06:48:45.347Z,59.43
2022-08-28T06:51:12.784Z,61.05
2022-08-28T06:53:40.913Z,60.49
2022-08-28T06:56:08.916Z,59.92
2022-08-28T06:58:39.599Z,61.04
2022-08-28T07:01:17.460Z,59.91
2022-08-28T07:03:45.127Z,57.61
2022-08-28T07:06:13.525Z,55.58
2022-08-28T07:08:41.191Z,56.40
2022-08-28T07:11:20.386Z,55.09
2022-08-28T07:13:47.079Z,53.89
2022-08-28T07:16:17.346Z,53.07
2022-08-28T07:18:45.010Z,55.04
2022-08-28T07:21:12.570Z,55.71
2022-08-28T07:23:40.151Z,53.79
2022-08-28T07:26:09.759Z,53.71
2022-08-28T07:28:36.914Z,54.63
2022-08-28T07:31:13.323Z,55.34
2022-08-28T07:33:40.783Z,55.19
2022-08-28T07:36:09.347Z,54.70
2022-08-28T07:38:43.292Z,53.22
2022-08-28T07:41:15.159Z,54.21
2022-08-28T07:44:00.930Z,53.65
2022-08-28T07:46:27.601Z,54.62
2022-08-28T07:48:54.057Z,52.38
2022-08-28T07:51:20.796Z,51.04
2022-08-28T07:53:47.429Z,52.70
2022-08-28T07:56:13.895Z,53.57
2022-08-28T07:58:40.475Z,52.01
2022-08-28T08:01:07.376Z,53.31
2022-08-28T08:03:34.654Z,51.86
2022-08-28T08:06:03.391Z,52.29
2022-08-28T08:08:31.734Z,52.86
2022-08-28T08:11:10.667Z,51.79
2022-08-28T08:13:40.739Z,51.20
2022-08-28T08:16:17.431Z,51.60
2022-08-28T08:18:44.462Z,51.41
2022-08-28T08:21:13.717Z,50.06
2022-08-28T08:23:41.623Z,51.17
2022-08-28T08:26:11.361Z,52.42
2022-08-28T08:28:38.614Z,49.80
2022-08-28T08:31:14.974Z,49.51
2022-08-28T08:33:44.693Z,50.23
2022-08-28T08:36:13.362Z,49.66
2022-08-28T08:38:39.881Z,48.81
2022-08-28T08:41:14.648Z,48.27
2022-08-28T08:44:00.888Z,47.48
2022-08-28T08:46:38.334Z,45.57
2022-08-28T08:49:12.414Z,46.27
2022-08-28T08:51:47.560Z,49.29
2022-08-28T08:54:20.240Z,48.37
2022-08-28T08:56:47.411Z,47.52
2022-08-28T08:59:17.288Z,46.52
2022-08-28T09:01:56.903Z,45.58
2022-08-28T09:04:34.394Z,46.82
2022-08-28T09:07:23.329Z,46.67
2022-08-28T09:09:57.521Z,47.17
2022-08-28T09:12:29.473Z,46.63
2022-08-28T09:15:10.563Z,46.05
2022-08-28T09:17:48.019Z,45.27
2022-08-28T09:20:20.133Z,43.95
2022-08-28T09:22:52.456Z,44.16
2022-08-28T09:25:52.323Z,44.29
2022-08-28T09:28:28.773Z,45.26
2022-08-28T09:31:00.286Z,42.46
2022-08-28T09:33:30.931Z,42.50
2022-08-28T09:35:57.852Z,43.72
2022-08-28T09:38:28.105Z,40.44
2022-08-28T09:41:27.423Z,41.25
2022-08-28T09:43:54.097Z,40.28
2022-08-28T09:46:24.522Z,42.41
2022-08-28T09:48:54.361Z,41.19
2022-08-28T09:51:20.731Z,40.83
2022-08-28T09:53:56.494Z,40.20
2022-08-28T09:56:28.683Z,40.82
2022-08-28T09:59:02.554Z,41.37
2022-08-28T10:01:44.537Z,39.12
2022-08-28T10:04:28.921Z,38.00
2022-08-28T10:07:09.806Z,39.48
2022-08-28T10:09:40.220Z,37.79
2022-08-28T10:12:35.157Z,37.44
2022-08-28T10:15:19.323Z,37.96
2022-08-28T10:17:54.923Z,38.38
2022-08-28T10:20:46.606Z,39.30
2022-08-28T10:23:52.283Z,37.27
2022-08-28T10:26:30.269Z,35.72
2022-08-28T10:29:27.366Z,36.05
2022-08-28T10:32:30.089Z,36.61
2022-08-28T10:34:59.486Z,36.32
2022-08-28T10:37:45.039Z,36.15
2022-08-28T10:40:16.824Z,36.21
2022-08-28T10:43:20.156Z,35.67
2022-08-28T10:45:48.261Z,34.72
2022-08-28T10:48:30.290Z,37.03
2022-08-28T10:51:00.929Z,35.98
2022-08-28T10:53:43.969Z,35.23
2022-08-28T10:56:16.152Z,33.16
2022-08-28T10:58:43.127Z,35.63
2022-08-28T11:01:14.555Z,36.46
2022-08-28T11:03:46.549Z,37.45
2022-08-28T11:06:20.572Z,35.17
2022-08-28T11:08:51.957Z,37.90
2022-08-28T11:11:42.611Z,36.62
2022-08-28T11:14:25.206Z,36.36
2022-08-28T11:16:53.018Z,35.86
2022-08-28T11:19:32.262Z,36.17
2022-08-28T11:22:12.896Z,37.34
2022-08-28T11:24:42.974Z,37.83
2022-08-28T11:27:31.180Z,37.82
2022-08-28T11:30:09.911Z,37.81
2022-08-28T11:32:51.725Z,39.21
2022-08-28T11:35:21.133Z,39.07
2022-08-28T11:37:49.979Z,39.17
2022-08-28T11:40:21.043Z,41.42
2022-08-28T11:42:50.411Z,43.51
2022-08-28T11:45:45.695Z,43.26
2022-08-28T11:48:25.668Z,44.55
2022-08-28T11:51:02.221Z,46.02
2022-08-28T11:53:50.038Z,47.15
2022-08-28T11:56:30.941Z,48.16
2022-08-28T11:59:26.087Z,48.78
2022-08-28T12:02:39.503Z,50.27
2022-08-28T12:05:18.124Z,50.80
2022-08-28T12:07:49.836Z,51.60
2022-08-28T12:10:22.343Z,52.39
2022-08-28T12:12:52.602Z,52.96
2022-08-28T12:15:28.011Z,54.20
2022-08-28T12:18:00.141Z,55.22
2022-08-28T12:20:53.894Z,55.25
2022-08-28T12:23:23.220Z,55.80
2022-08-28T12:25:51.671Z,56.43
2022-08-28T12:28:26.603Z,56.94
2022-08-28T12:31:05.281Z,58.04
2022-08-28T12:33:33.812Z,60.82
2022-08-28T12:36:04.841Z,63.54
2022-08-28T12:38:33.029Z,63.00
2022-08-28T12:40:59.788Z,65.77
2022-08-28T12:43:28.757Z,69.03
2022-08-28T12:46:19.137Z,70.56
2022-08-28T12:48:59.420Z,69.24
2022-08-28T12:51:34.340Z,72.12
2022-08-28T12:54:04.678Z,73.08
2022-08-28T12:56:38.351Z,74.91
2022-08-28T12:59:33.113Z,73.87
2022-08-28T13:02:18.438Z,74.53
2022-08-28T13:05:01.024Z,77.47
2022-08-28T13:07:35.085Z,76.44
2022-08-28T13:10:19.959Z,73.35
2022-08-28T13:13:05.406Z,73.15
2022-08-28T13:15:58.075Z,72.27
2022-08-28T13:18:35.605Z,71.78
2022-08-28T13:21:33.926Z,72.08
2022-08-28T13:24:21.667Z,73.62
2022-08-28T13:27:07.100Z,71.71
2022-08-28T13:29:34.482Z,73.11
2022-08-28T13:32:15.694Z,72.68
2022-08-28T13:35:13.765Z,73.88
2022-08-28T13:37:47.927Z,72.21
2022-08-28T13:40:38.448Z,71.37
2022-08-28T13:43:08.167Z,65.65
2022-08-28T13:45:42.918Z,63.52
2022-08-28T13:48:12.561Z,63.28
2022-08-28T13:50:40.386Z,60.25
2022-08-28T13:53:07.071Z,61.09
2022-08-28T13:55:33.762Z,59.83
2022-08-28T13:58:00.320Z,59.47
2022-08-28T14:00:28.169Z,59.31
2022-08-28T14:03:13.400Z,60.02
2022-08-28T14:05:40.171Z,60.26
2022-08-28T14:08:06.715Z,60.39
2022-08-28T14:10:33.247Z,60.02
2022-08-28T14:13:00.484Z,59.84
2022-08-28T14:15:27.127Z,60.26
2022-08-28T14:17:53.632Z,60.51
2022-08-28T14:20:20.208Z,60.82
2022-08-28T14:22:46.700Z,60.77
2022-08-28T14:25:13.561Z,60.15
2022-08-28T14:27:40.143Z,59.32
2022-08-28T14:30:08.122Z,59.60
2022-08-28T14:32:35.422Z,59.70
2022-08-28T14:35:02.298Z,59.76
2022-08-28T14:37:29.088Z,60.25
2022-08-28T14:39:55.734Z,59.44
2022-08-28T14:42:23.082Z,60.46
2022-08-28T14:44:49.564Z,59.91
2022-08-28T14:47:16.182Z,59.94
2022-08-28T14:49:42.837Z,58.49
2022-08-28T14:52:09.467Z,58.55
2022-08-28T14:54:36.062Z,58.15
2022-08-28T14:57:03.148Z,57.90
2022-08-28T14:59:31.026Z,58.01
2022-08-28T15:01:59.578Z,59.27
2022-08-28T15:04:28.919Z,58.51
2022-08-28T15:06:58.263Z,58.22
2022-08-28T15:09:25.292Z,58.64
2022-08-28T15:11:53.722Z,59.41
2022-08-28T15:14:20.291Z,58.63
2022-08-28T15:16:47.990Z,59.90
2022-08-28T15:19:17.779Z,58.98
2022-08-28T15:21:49.735Z,60.44
2022-08-28T15:24:18.753Z,60.87
2022-08-28T15:26:45.402Z,60.00
2022-08-28T15:29:12.335Z,60.01
2022-08-28T15:31:42.997Z,60.39
2022-08-28T15:34:16.490Z,59.04
2022-08-28T15:36:44.204Z,59.49
2022-08-28T15:39:30.550Z,59.55
2022-08-28T15:41:57.494Z,59.54
2022-08-28T15:44:24.168Z,61.22
2022-08-28T15:46:56.855Z,60.29
2022-08-28T15:49:24.321Z,59.58
2022-08-28T15:51:51.208Z,59.62
2022-08-28T15:54:17.908Z,59.94
2022-08-28T15:56:44.908Z,59.87
2022-08-28T15:59:12.367Z,59.90
2022-08-28T16:01:39.140Z,60.15
2022-08-28T16:04:06.934Z,60.49
2022-08-28T16:06:34.318Z,60.14
2022-08-28T16:09:00.944Z,59.37
2022-08-28T16:11:28.009Z,59.27
2022-08-28T16:13:59.293Z,59.62
2022-08-28T16:16:26.070Z,60.54
2022-08-28T16:18:55.208Z,59.16
2022-08-28T16:21:22.507Z,59.92
2022-08-28T16:23:53.466Z,61.06
2022-08-28T16:26:20.620Z,60.22
2022-08-28T16:28:47.501Z,59.86
2022-08-28T16:31:20.469Z,60.64
2022-08-28T16:34:02.472Z,60.95
2022-08-28T16:36:29.592Z,59.98
2022-08-28T16:39:00.414Z,60.89
2022-08-28T16:41:31.838Z,61.16
2022-08-28T16:43:58.898Z,62.28
2022-08-28T16:46:26.585Z,61.03
2022-08-28T16:48:53.897Z,60.57
2022-08-28T16:51:20.706Z,61.58
2022-08-28T16:53:47.334Z,62.47
2022-08-28T16:56:15.626Z,62.48
2022-08-28T16:58:43.251Z,62.24
2022-08-28T17:01:12.306Z,64.17
2022-08-28T17:03:39.998Z,64.23
2022-08-28T17:06:18.202Z,64.51
2022-08-28T17:08:45.253Z,65.67
2022-08-28T17:11:12.859Z,64.87
2022-08-28T17:13:39.617Z,65.98
2022-08-28T17:16:06.555Z,66.92
2022-08-28T17:18:33.179Z,66.90
2022-08-28T17:21:18.348Z,66.85
2022-08-28T17:23:46.483Z,66.64
2022-08-28T17:26:15.451Z,67.80
2022-08-28T17:28:43.100Z,68.59
2022-08-28T17:31:09.652Z,68.45
2022-08-28T17:33:37.818Z,68.94
2022-08-28T17:36:17.071Z,69.46
2022-08-28T17:38:54.854Z,70.10
2022-08-28T17:41:21.379Z,70.80
2022-08-28T17:43:47.902Z,70.08
2022-08-28T17:46:14.466Z,70.09
2022-08-28T17:48:41.542Z,70.42
2022-08-28T17:51:18.510Z,71.15
2022-08-28T17:53:49.896Z,71.95
2022-08-28T17:56:17.854Z,71.73
2022-08-28T17:58:44.489Z,71.84
2022-08-28T18:01:11.116Z,72.02
2022-08-28T18:03:45.661Z,72.38
2022-08-28T18:06:19.859Z,72.73
2022-08-28T18:08:47.727Z,72.93
2022-08-28T18:11:15.414Z,72.53
2022-08-28T18:13:42.539Z,73.33
2022-08-28T18:16:09.127Z,72.71
2022-08-28T18:18:36.521Z,72.46
2022-08-28T18:21:03.352Z,72.83
2022-08-28T18:23:30.069Z,72.81
2022-08-28T18:25:56.550Z,72.52
2022-08-28T18:28:24.941Z,73.28
2022-08-28T18:30:52.119Z,73.38
2022-08-28T18:33:22.227Z,74.18
2022-08-28T18:35:49.769Z,73.62
2022-08-28T18:38:17.353Z,73.92
2022-08-28T18:40:45.027Z,74.58
2022-08-28T18:43:12.506Z,73.88
2022-08-28T18:45:39.082Z,74.23
2022-08-28T18:48:07.894Z,74.18
2022-08-28T18:50:35.554Z,74.29
2022-08-28T18:53:02.487Z,74.03
2022-08-28T18:55:31.105Z,73.67
2022-08-28T18:58:00.249Z,74.49
2022-08-28T19:00:26.956Z,74.82
2022-08-28T19:02:53.824Z,74.97
2022-08-28T19:05:21.173Z,74.44
2022-08-28T19:07:48.001Z,74.21
2022-08-28T19:10:32.699Z,74.47
2022-08-28T19:13:01.078Z,74.28
2022-08-28T19:15:28.402Z,74.40
2022-08-28T19:17:55.178Z,74.59
2022-08-28T19:20:21.873Z,75.21
2022-08-28T19:22:48.905Z,74.86
2022-08-28T19:25:28.679Z,74.63
2022-08-28T19:28:01.483Z,76.02
2022-08-28T19:30:31.313Z,75.78
2022-08-28T19:32:57.800Z,75.26
2022-08-28T19:35:25.213Z,75.83
2022-08-28T19:37:52.962Z,75.45
2022-08-28T19:40:20.618Z,77.22
2022-08-28T19:42:47.454Z,76.12
2022-08-28T19:45:15.137Z,76.07
2022-08-28T19:47:41.750Z,76.00
2022-08-28T19:50:10.253Z,76.07
2022-08-28T19:52:37.955Z,76.64
2022-08-28T19:55:05.998Z,76.89
2022-08-28T19:57:33.268Z,77.22
2022-08-28T20:00:00.135Z,77.80
2022-08-28T20:02:28.552Z,77.00
2022-08-28T20:07:46.018Z,78.41
2022-08-28T20:10:12.953Z,79.07
2022-08-28T20:12:39.533Z,78.72
2022-08-28T20:15:16.020Z,78.48
2022-08-28T20:17:43.921Z,78.47
2022-08-28T20:20:19.773Z,78.34
2022-08-28T20:22:46.383Z,80.23
2022-08-28T20:25:13.360Z,79.70
2022-08-28T20:27:41.431Z,79.83
2022-08-28T20:30:11.136Z,81.13
2022-08-28T20:32:40.141Z,80.51
2022-08-28T20:35:09.526Z,80.48
2022-08-28T20:37:42.628Z,79.75
2022-08-28T20:40:14.011Z,79.84
2022-08-28T20:42:40.548Z,79.74
2022-08-28T20:45:08.920Z,79.34
2022-08-28T20:47:35.575Z,79.69
2022-08-28T20:50:02.031Z,79.96
2022-08-28T20:52:28.913Z,79.72
2022-08-28T20:54:55.457Z,79.95
2022-08-28T20:57:22.834Z,80.80
2022-08-28T20:59:49.959Z,81.07
2022-08-28T21:02:20.460Z,81.13
2022-08-28T21:04:47.820Z,80.78
2022-08-28T21:07:17.164Z,80.95
2022-08-28T21:10:05.679Z,81.79
2022-08-28T21:12:30.871Z,81.37
2022-08-28T21:14:57.690Z,80.87
2022-08-28T21:17:30.227Z,81.68
2022-08-28T21:20:10.471Z,81.22
2022-08-28T21:22:39.235Z,81.67
2022-08-28T21:25:07.290Z,81.51
2022-08-28T21:27:33.835Z,81.65
2022-08-28T21:30:01.031Z,82.38
2022-08-28T21:32:28.764Z,83.04
2022-08-28T21:34:55.400Z,81.98
2022-08-28T21:37:22.415Z,82.56
2022-08-28T21:39:50.746Z,82.26
2022-08-28T21:42:17.364Z,81.64
2022-08-28T21:44:51.419Z,82.60
2022-08-28T21:47:19.673Z,81.90
2022-08-28T21:49:49.371Z,82.21
2022-08-28T21:52:18.329Z,81.42
2022-08-28T21:54:44.871Z,81.54
2022-08-28T21:57:11.366Z,81.29
2022-08-28T21:59:38.264Z,81.83
2022-08-28T22:02:05.078Z,81.51
2022-08-28T22:04:31.601Z,81.28
2022-08-28T22:06:58.485Z,80.74
2022-08-28T22:09:24.991Z,80.25
2022-08-28T22:11:51.454Z,81.14
2022-08-28T22:14:18.399Z,80.78
2022-08-28T22:16:45.129Z,80.46
2022-08-28T22:19:11.634Z,80.11
2022-08-28T22:21:57.006Z,80.07
2022-08-28T22:24:28.397Z,80.84
2022-08-28T22:26:58.921Z,80.91
2022-08-28T22:29:36.795Z,82.38
2022-08-28T22:32:07.833Z,80.77
2022-08-28T22:34:42.346Z,81.29
2022-08-28T22:37:11.226Z,81.14
2022-08-28T22:39:41.695Z,79.76
2022-08-28T22:42:09.830Z,80.27
2022-08-28T22:44:37.263Z,80.67
2022-08-28T22:47:03.909Z,80.86
2022-08-28T22:49:30.374Z,79.99
2022-08-28T22:51:57.195Z,79.21
2022-08-28T22:54:23.665Z,79.60
2022-08-28T22:56:50.116Z,78.39
2022-08-28T22:59:16.714Z,77.88
2022-08-28T23:01:43.228Z,78.57
2022-08-28T23:04:10.781Z,78.65
2022-08-28T23:06:41.199Z,79.91
2022-08-28T23:09:08.155Z,78.64
2022-08-28T23:11:35.675Z,78.09
2022-08-28T23:14:02.952Z,78.93
2022-08-28T23:16:29.480Z,79.11
2022-08-28T23:19:13.277Z,79.23
2022-08-28T23:21:44.258Z,79.89
2022-08-28T23:24:16.122Z,80.84
2022-08-28T23:26:43.846Z,80.77
2022-08-28T23:29:10.895Z,80.80
2022-08-28T23:31:38.139Z,82.92
2022-08-28T23:34:05.301Z,82.65
2022-08-28T23:36:35.293Z,81.36
2022-08-28T23:39:02.705Z,81.46
2022-08-28T23:41:29.261Z,81.45
2022-08-28T23:43:57.111Z,81.69
2022-08-28T23:46:23.576Z,82.75
2022-08-28T23:48:50.128Z,83.58
2022-08-28T23:51:17.211Z,83.35
2022-08-28T23:53:43.989Z,84.43
2022-08-28T23:56:11.503Z,83.42
2022-08-28T23:58:39.538Z,84.08
